createdAt,value
2022-08-19T00:01:10.144Z,6.18
2022-08-19T00:03:58.836Z,6.20
2022-08-19T00:06:48.516Z,7.03
2022-08-19T00:09:37.516Z,6.80
2022-08-19T00:12:24.949Z,6.30
2022-08-19T00:15:15.865Z,10.05
2022-08-19T00:18:03.357Z,9.57
2022-08-19T00:20:51.051Z,9.52
2022-08-19T00:23:39.089Z,10.18
2022-08-19T00:26:29.249Z,11.68
2022-08-19T00:29:19.177Z,9.65
2022-08-19T00:32:07.089Z,10.55
2022-08-19T00:34:57.943Z,9.75
2022-08-19T00:37:46.126Z,10.38
2022-08-19T00:40:34.548Z,10.75
2022-08-19T00:43:27.496Z,9.68
2022-08-19T00:46:15.198Z,12.75
2022-08-19T00:49:04.528Z,13.00
2022-08-19T00:51:57.698Z,12.65
2022-08-19T00:54:52.398Z,13.53
2022-08-19T00:57:45.758Z,14.95
2022-08-19T01:03:27.138Z,11.18
2022-08-19T01:06:15.671Z,10.73
2022-08-19T01:09:08.164Z,10.32
2022-08-19T01:11:56.224Z,13.55
2022-08-19T01:14:43.965Z,14.82
2022-08-19T01:17:33.427Z,15.30
2022-08-19T01:20:24.920Z,16.70
2022-08-19T01:23:15.337Z,12.30
2022-08-19T01:26:02.943Z,12.82
2022-08-19T01:28:52.337Z,13.35
2022-08-19T01:31:40.441Z,15.95
2022-08-19T01:34:28.040Z,15.68
2022-08-19T01:37:24.858Z,18.27
2022-08-19T01:40:20.450Z,13.68
2022-08-19T01:43:08.812Z,14.45
2022-08-19T01:45:56.773Z,13.65
2022-08-19T01:48:48.254Z,12.93
2022-08-19T01:51:39.743Z,12.82
2022-08-19T01:54:28.164Z,12.10
2022-08-19T01:57:17.913Z,12.85
2022-08-19T02:00:08.025Z,12.50
2022-08-19T02:02:58.635Z,11.02
2022-08-19T02:05:46.780Z,15.00
2022-08-19T02:08:36.865Z,14.57
2022-08-19T02:11:27.595Z,12.93
2022-08-19T02:14:16.349Z,11.60
2022-08-19T02:17:03.707Z,12.57
2022-08-19T02:19:51.079Z,13.25
2022-08-19T02:22:38.911Z,12.00
2022-08-19T02:25:26.188Z,11.75
2022-08-19T02:28:16.764Z,13.75
2022-08-19T02:31:11.935Z,12.60
2022-08-19T02:33:59.394Z,13.73
2022-08-19T02:36:46.655Z,11.10
2022-08-19T02:39:38.386Z,10.03
2022-08-19T02:42:26.586Z,9.82
2022-08-19T02:45:14.719Z,11.23
2022-08-19T02:48:03.445Z,11.48
2022-08-19T02:51:00.800Z,11.32
2022-08-19T02:53:49.108Z,9.98
2022-08-19T02:56:38.390Z,9.30
2022-08-19T02:59:26.920Z,9.88
2022-08-19T03:02:14.382Z,11.10
2022-08-19T03:05:05.141Z,8.80
2022-08-19T03:07:52.421Z,12.27
2022-08-19T03:10:46.201Z,9.85
2022-08-19T03:13:34.074Z,10.00
2022-08-19T03:16:24.025Z,10.35
2022-08-19T03:19:11.650Z,11.65
2022-08-19T03:22:01.936Z,12.18
2022-08-19T03:24:49.550Z,10.10
2022-08-19T03:27:36.646Z,9.63
2022-08-19T03:30:23.864Z,8.52
2022-08-19T03:33:15.861Z,11.10
2022-08-19T03:36:10.511Z,9.48
2022-08-19T03:39:02.369Z,10.18
2022-08-19T03:42:38.202Z,11.77
2022-08-19T03:45:05.478Z,12.32
2022-08-19T03:47:53.163Z,9.65
2022-08-19T03:50:42.544Z,11.15
2022-08-19T03:53:31.189Z,13.98
2022-08-19T03:56:20.854Z,16.05
2022-08-19T03:59:09.285Z,8.25
2022-08-19T04:01:58.677Z,9.38
2022-08-19T04:04:46.636Z,9.98
2022-08-19T04:07:34.204Z,10.07
2022-08-19T04:10:21.757Z,10.25
2022-08-19T04:13:10.499Z,10.52
2022-08-19T04:15:57.896Z,10.00
2022-08-19T04:18:45.759Z,9.80
2022-08-19T04:21:33.871Z,11.60
2022-08-19T04:24:22.508Z,13.73
2022-08-19T04:27:10.487Z,10.80
2022-08-19T04:30:00.284Z,11.43
2022-08-19T04:32:47.622Z,11.95
2022-08-19T04:35:39.661Z,13.65
2022-08-19T04:38:26.803Z,16.05
2022-08-19T04:41:27.969Z,13.05
2022-08-19T04:44:19.125Z,13.25
2022-08-19T04:47:11.333Z,13.73
2022-08-19T04:49:59.704Z,13.07
2022-08-19T04:52:47.327Z,12.30
2022-08-19T04:55:38.271Z,16.83
2022-08-19T04:58:27.389Z,13.82
2022-08-19T05:01:16.018Z,12.35
2022-08-19T05:04:07.732Z,14.05
2022-08-19T05:06:56.961Z,12.20
2022-08-19T05:09:57.681Z,13.82
2022-08-19T05:12:46.274Z,12.18
2022-08-19T05:15:33.961Z,14.55
2022-08-19T05:18:35.371Z,16.85
2022-08-19T05:21:43.032Z,18.55
2022-08-19T05:24:32.625Z,19.00
2022-08-19T05:27:19.054Z,12.25
2022-08-19T05:30:06.385Z,14.18
2022-08-19T05:32:54.624Z,13.35
2022-08-19T05:35:43.362Z,13.00
2022-08-19T05:38:34.950Z,12.57
2022-08-19T05:41:30.924Z,15.10
2022-08-19T05:44:32.779Z,12.55
2022-08-19T05:47:22.189Z,16.27
2022-08-19T05:50:10.109Z,17.35
2022-08-19T05:52:57.882Z,13.80
2022-08-19T05:55:46.384Z,14.50
2022-08-19T05:58:33.924Z,13.88
2022-08-19T06:01:22.424Z,13.00
2022-08-19T06:04:09.735Z,13.35
2022-08-19T06:06:57.391Z,13.15
2022-08-19T06:09:59.069Z,13.95
2022-08-19T06:12:50.286Z,17.33
2022-08-19T06:15:37.517Z,19.48
2022-08-19T06:18:25.359Z,15.48
2022-08-19T06:21:12.949Z,22.95
2022-08-19T06:24:03.492Z,15.20
2022-08-19T06:26:53.107Z,17.48
2022-08-19T06:29:43.830Z,15.85
2022-08-19T06:32:31.511Z,16.27
2022-08-19T06:35:19.012Z,14.98
2022-08-19T06:38:06.352Z,16.70
2022-08-19T06:41:02.428Z,15.23
2022-08-19T06:43:57.351Z,18.20
2022-08-19T06:46:54.603Z,18.55
2022-08-19T06:49:42.863Z,21.38
2022-08-19T06:52:38.201Z,19.15
2022-08-19T06:55:26.426Z,19.48
2022-08-19T06:58:14.374Z,21.75
2022-08-19T07:01:05.749Z,20.48
2022-08-19T07:03:57.605Z,17.17
2022-08-19T07:06:54.858Z,21.10
2022-08-19T07:09:58.544Z,20.92
2022-08-19T07:12:50.172Z,20.60
2022-08-19T07:15:39.796Z,22.52
2022-08-19T07:18:27.583Z,21.98
2022-08-19T07:21:18.280Z,24.67
2022-08-19T07:24:07.243Z,27.40
2022-08-19T07:27:03.217Z,28.05
2022-08-19T07:29:57.118Z,27.17
2022-08-19T07:32:45.966Z,29.30
2022-08-19T07:35:34.698Z,26.15
2022-08-19T07:38:23.427Z,25.75
2022-08-19T07:41:12.971Z,25.55
2022-08-19T07:44:04.710Z,26.92
2022-08-19T07:46:55.478Z,27.80
2022-08-19T07:49:43.418Z,24.90
2022-08-19T07:52:30.991Z,27.60
2022-08-19T07:55:42.404Z,26.65
2022-08-19T07:58:35.223Z,28.13
2022-08-19T08:04:25.847Z,33.78
2022-08-19T08:07:31.504Z,29.92
2022-08-19T08:10:20.945Z,29.63
2022-08-19T08:13:10.128Z,29.08
2022-08-19T08:15:58.786Z,29.20
2022-08-19T08:18:50.524Z,30.42
2022-08-19T08:24:31.767Z,27.63
2022-08-19T08:27:22.620Z,33.25
2022-08-19T08:30:45.319Z,34.85
2022-08-19T08:33:35.343Z,33.65
2022-08-19T08:36:23.172Z,35.50
2022-08-19T08:39:11.521Z,32.30
2022-08-19T08:42:17.753Z,30.77
2022-08-19T08:45:17.029Z,32.85
2022-08-19T08:48:24.245Z,31.10
2022-08-19T08:51:20.295Z,32.92
2022-08-19T08:54:11.045Z,35.00
2022-08-19T08:56:59.120Z,35.63
2022-08-19T08:59:51.778Z,31.27
2022-08-19T09:02:40.898Z,34.00
2022-08-19T09:05:48.474Z,34.55
2022-08-19T09:08:46.304Z,35.03
2022-08-19T09:11:53.104Z,33.67
2022-08-19T09:14:51.997Z,37.72
2022-08-19T09:17:41.252Z,37.13
2022-08-19T09:20:29.061Z,30.48
2022-08-19T09:23:16.740Z,37.22
2022-08-19T09:26:09.342Z,37.85
2022-08-19T09:31:46.760Z,37.60
2022-08-19T09:34:37.983Z,37.25
2022-08-19T09:37:26.388Z,32.42
2022-08-19T09:40:15.446Z,32.33
2022-08-19T09:43:12.916Z,32.90
2022-08-19T09:46:01.600Z,34.60
2022-08-19T09:48:49.964Z,34.85
2022-08-19T09:51:38.916Z,34.85
2022-08-19T09:54:27.270Z,32.80
2022-08-19T09:57:14.702Z,40.97
2022-08-19T10:00:04.231Z,37.72
2022-08-19T10:02:57.074Z,32.25
2022-08-19T10:05:59.310Z,35.42
2022-08-19T10:08:50.255Z,40.72
2022-08-19T10:11:39.970Z,35.17
2022-08-19T10:14:29.728Z,30.55
2022-08-19T10:17:21.435Z,33.30
2022-08-19T10:20:11.292Z,36.67
2022-08-19T10:23:00.689Z,27.60
2022-08-19T10:25:51.559Z,37.90
2022-08-19T10:28:39.876Z,39.13
2022-08-19T10:32:02.423Z,31.40
2022-08-19T10:34:48.949Z,28.80
2022-08-19T10:37:49.786Z,30.58
2022-08-19T10:40:45.959Z,22.67
2022-08-19T10:43:37.134Z,28.25
2022-08-19T10:46:26.290Z,37.53
2022-08-19T10:49:14.047Z,25.83
2022-08-19T10:52:18.667Z,22.73
2022-08-19T10:55:29.372Z,22.58
2022-08-19T10:58:18.466Z,19.08
2022-08-19T11:01:06.209Z,21.73
2022-08-19T11:03:53.149Z,18.95
2022-08-19T11:06:42.234Z,15.65
2022-08-19T11:09:33.987Z,17.60
2022-08-19T11:12:23.043Z,17.30
2022-08-19T11:15:12.978Z,13.82
2022-08-19T11:18:01.921Z,15.63
2022-08-19T11:20:50.303Z,16.95
2022-08-19T11:23:37.915Z,18.45
2022-08-19T11:26:26.585Z,19.30
2022-08-19T11:29:15.427Z,18.90
2022-08-19T11:32:06.493Z,15.75
2022-08-19T11:34:55.856Z,13.48
2022-08-19T11:37:42.726Z,10.30
2022-08-19T11:40:30.250Z,7.78
2022-08-19T11:43:17.554Z,6.38
2022-08-19T11:46:08.144Z,10.30
2022-08-19T11:48:55.920Z,8.60
2022-08-19T11:51:45.688Z,6.32
2022-08-19T11:54:33.161Z,6.63
2022-08-19T11:57:20.956Z,4.53
2022-08-19T12:00:10.829Z,6.65
2022-08-19T12:02:58.192Z,5.38
2022-08-19T12:05:45.656Z,3.75
2022-08-19T12:08:34.422Z,4.05
2022-08-19T12:11:22.636Z,2.67
2022-08-19T12:14:15.230Z,4.78
2022-08-19T12:17:06.249Z,2.00
2022-08-19T12:19:53.526Z,2.38
2022-08-19T12:22:42.433Z,2.92
2022-08-19T12:25:34.065Z,2.10
2022-08-19T12:28:23.151Z,1.75
2022-08-19T12:31:13.308Z,2.40
2022-08-19T12:34:03.641Z,2.10
2022-08-19T12:36:51.329Z,2.10
2022-08-19T12:39:40.645Z,2.22
2022-08-19T12:42:29.599Z,3.42
2022-08-19T12:45:17.317Z,1.88
2022-08-19T12:48:32.836Z,3.50
2022-08-19T12:51:15.723Z,4.57
2022-08-19T12:54:03.546Z,2.65
2022-08-19T12:56:50.653Z,3.70
2022-08-19T12:59:40.990Z,2.65
2022-08-19T13:02:28.126Z,2.15
2022-08-19T13:05:18.022Z,2.72
2022-08-19T13:08:05.671Z,2.05
2022-08-19T13:10:52.890Z,2.50
2022-08-19T13:13:42.348Z,3.05
2022-08-19T13:16:31.943Z,3.50
2022-08-19T13:19:22.028Z,3.15
2022-08-19T13:22:13.269Z,2.08
2022-08-19T13:25:02.855Z,3.17
2022-08-19T13:27:51.929Z,3.53
2022-08-19T13:30:52.998Z,2.13
2022-08-19T13:33:40.682Z,1.98
2022-08-19T13:36:27.111Z,3.72
2022-08-19T13:39:13.581Z,2.38
2022-08-19T13:42:02.054Z,2.55
2022-08-19T13:44:49.371Z,2.83
2022-08-19T13:47:43.642Z,2.92
2022-08-19T13:50:33.782Z,2.88
2022-08-19T13:53:21.512Z,4.65
2022-08-19T13:56:12.104Z,3.28
2022-08-19T13:58:59.605Z,3.33
2022-08-19T14:01:47.386Z,3.17
2022-08-19T14:04:34.676Z,5.15
2022-08-19T14:07:24.679Z,3.25
2022-08-19T14:10:14.400Z,3.53
2022-08-19T14:13:04.097Z,3.60
2022-08-19T14:15:52.036Z,3.30
2022-08-19T14:18:40.401Z,3.58
2022-08-19T14:21:28.219Z,3.60
2022-08-19T14:24:16.909Z,4.60
2022-08-19T14:27:04.318Z,3.53
2022-08-19T14:29:53.275Z,4.18
2022-08-19T14:32:40.425Z,4.40
2022-08-19T14:35:28.864Z,3.80
2022-08-19T14:38:28.057Z,3.45
2022-08-19T14:41:24.655Z,3.67
2022-08-19T14:44:13.549Z,3.50
2022-08-19T14:47:00.642Z,2.33
2022-08-19T14:49:50.381Z,2.63
2022-08-19T14:52:37.286Z,2.42
2022-08-19T14:55:24.668Z,2.58
2022-08-19T14:58:29.621Z,2.88
2022-08-19T15:01:18.531Z,2.90
2022-08-19T15:04:05.871Z,3.15
2022-08-19T15:06:53.213Z,2.60
2022-08-19T15:09:40.589Z,2.90
2022-08-19T15:12:28.542Z,7.75
2022-08-19T15:15:18.454Z,3.17
2022-08-19T15:18:05.963Z,3.30
2022-08-19T15:20:53.869Z,3.75
2022-08-19T15:23:41.815Z,3.65
2022-08-19T15:26:33.935Z,5.72
2022-08-19T15:29:21.599Z,6.90
2022-08-19T15:32:10.722Z,5.93
2022-08-19T15:34:57.861Z,4.22
2022-08-19T15:37:46.372Z,5.53
2022-08-19T15:40:34.122Z,6.28
2022-08-19T15:43:22.821Z,6.38
2022-08-19T15:46:10.381Z,9.43
2022-08-19T15:49:07.174Z,8.07
2022-08-19T15:51:57.928Z,8.57
2022-08-19T15:54:45.042Z,8.40
2022-08-19T15:57:46.290Z,9.63
2022-08-19T16:00:53.024Z,9.52
2022-08-19T16:03:40.139Z,9.88
2022-08-19T16:06:29.909Z,8.75
2022-08-19T16:09:17.311Z,8.40
2022-08-19T16:12:08.790Z,9.23
2022-08-19T16:14:56.227Z,8.55
2022-08-19T16:17:43.955Z,9.43
2022-08-19T16:20:44.542Z,8.30
2022-08-19T16:23:33.565Z,7.35
2022-08-19T16:26:21.754Z,8.13
2022-08-19T16:29:12.867Z,7.50
2022-08-19T16:32:00.649Z,7.72
2022-08-19T16:34:51.039Z,7.40
2022-08-19T16:37:38.148Z,4.47
2022-08-19T16:40:26.994Z,4.43
2022-08-19T16:43:14.050Z,4.78
2022-08-19T16:46:01.732Z,5.30
2022-08-19T16:48:48.961Z,4.65
2022-08-19T16:51:36.402Z,6.63
2022-08-19T16:54:23.490Z,5.38
2022-08-19T16:57:12.927Z,5.50
2022-08-19T16:59:59.832Z,5.22
2022-08-19T17:02:47.186Z,5.65
2022-08-19T17:05:34.173Z,5.60
2022-08-19T17:08:23.945Z,5.97
2022-08-19T17:11:18.096Z,5.43
2022-08-19T17:14:10.105Z,4.82
2022-08-19T17:16:57.742Z,4.55
2022-08-19T17:19:45.172Z,7.03
2022-08-19T17:22:32.498Z,5.15
2022-08-19T17:25:19.608Z,4.95
2022-08-19T17:28:11.642Z,5.13
2022-08-19T17:31:00.084Z,4.47
2022-08-19T17:33:48.688Z,4.95
2022-08-19T17:36:38.571Z,4.70
2022-08-19T17:39:25.682Z,4.95
2022-08-19T17:42:15.238Z,4.47
2022-08-19T17:45:04.872Z,4.65
2022-08-19T17:47:53.874Z,6.68
2022-08-19T17:50:42.007Z,7.50
2022-08-19T17:53:31.992Z,7.65
2022-08-19T17:56:19.670Z,6.03
2022-08-19T17:59:07.845Z,5.15
2022-08-19T18:02:01.777Z,7.05
2022-08-19T18:04:56.151Z,6.60
2022-08-19T18:07:44.651Z,6.32
2022-08-19T18:10:35.407Z,5.25
2022-08-19T18:13:22.824Z,5.20
2022-08-19T18:16:12.568Z,6.88
2022-08-19T18:19:00.240Z,6.85
2022-08-19T18:21:49.583Z,6.88
2022-08-19T18:24:39.564Z,8.60
2022-08-19T18:27:28.405Z,7.15
2022-08-19T18:30:16.307Z,10.15
2022-08-19T18:33:09.146Z,8.65
2022-08-19T18:35:57.050Z,8.10
2022-08-19T18:39:02.878Z,11.18
2022-08-19T18:42:14.988Z,11.18
2022-08-19T18:45:19.730Z,12.20
2022-08-19T18:48:27.608Z,10.13
2022-08-19T18:51:16.149Z,8.82
2022-08-19T18:54:04.404Z,10.38
2022-08-19T18:56:51.195Z,8.20
2022-08-19T18:59:39.106Z,8.40
2022-08-19T19:02:27.995Z,13.85
2022-08-19T19:05:16.313Z,9.43
2022-08-19T19:08:03.942Z,12.77
2022-08-19T19:10:53.030Z,11.57
2022-08-19T19:13:41.670Z,12.32
2022-08-19T19:16:30.137Z,12.00
2022-08-19T19:19:19.501Z,13.38
2022-08-19T19:22:07.791Z,11.95
2022-08-19T19:24:55.841Z,12.23
2022-08-19T19:27:44.392Z,17.08
2022-08-19T19:30:32.043Z,12.88
2022-08-19T19:33:19.885Z,14.05
2022-08-19T19:36:07.575Z,16.85
2022-08-19T19:38:54.782Z,13.60
2022-08-19T19:41:42.577Z,15.52
2022-08-19T19:44:32.663Z,13.05
2022-08-19T19:47:24.736Z,11.85
2022-08-19T19:50:15.167Z,15.17
2022-08-19T19:53:03.823Z,15.68
2022-08-19T19:55:55.187Z,13.30
2022-08-19T19:58:43.397Z,12.50
2022-08-19T20:01:32.538Z,13.18
2022-08-19T20:04:20.871Z,13.60
2022-08-19T20:07:10.713Z,12.15
2022-08-19T20:10:00.190Z,11.88
2022-08-19T20:12:47.820Z,11.32
2022-08-19T20:15:39.051Z,12.65
2022-08-19T20:18:31.455Z,15.18
2022-08-19T20:21:18.812Z,12.27
2022-08-19T20:24:08.916Z,13.07
2022-08-19T20:26:57.436Z,12.25
2022-08-19T20:29:45.672Z,12.25
2022-08-19T20:32:33.319Z,13.63
2022-08-19T20:35:23.501Z,11.40
2022-08-19T20:38:10.879Z,12.00
2022-08-19T20:40:58.240Z,13.25
2022-08-19T20:43:45.641Z,14.23
2022-08-19T20:46:33.713Z,14.52
2022-08-19T20:49:21.464Z,12.40
2022-08-19T20:52:10.618Z,12.68
2022-08-19T20:54:57.585Z,11.07
2022-08-19T20:57:46.776Z,12.90
2022-08-19T21:00:34.044Z,11.63
2022-08-19T21:03:24.925Z,14.65
2022-08-19T21:06:14.850Z,12.10
2022-08-19T21:09:04.040Z,15.40
2022-08-19T21:11:51.762Z,14.90
2022-08-19T21:14:40.898Z,15.20
2022-08-19T21:17:28.361Z,14.35
2022-08-19T21:20:16.638Z,16.85
2022-08-19T21:23:05.922Z,11.82
2022-08-19T21:25:57.229Z,12.43
2022-08-19T21:28:44.655Z,15.38
2022-08-19T21:31:31.753Z,14.93
2022-08-19T21:34:19.882Z,12.82
2022-08-19T21:37:07.456Z,13.93
2022-08-19T21:39:59.728Z,16.23
2022-08-19T21:42:49.286Z,16.17
2022-08-19T21:45:37.107Z,14.23
2022-08-19T21:48:24.601Z,15.32
2022-08-19T21:51:12.168Z,13.50
2022-08-19T21:53:59.439Z,18.17
2022-08-19T21:56:47.219Z,14.68
2022-08-19T21:59:36.368Z,16.55
2022-08-19T22:02:23.987Z,17.20
2022-08-19T22:05:11.482Z,16.58
2022-08-19T22:08:00.630Z,17.92
2022-08-19T22:10:49.967Z,16.88
2022-08-19T22:13:40.520Z,19.88
2022-08-19T22:16:30.195Z,17.77
2022-08-19T22:19:17.672Z,18.05
2022-08-19T22:22:08.575Z,19.58
2022-08-19T22:25:01.667Z,19.00
2022-08-19T22:27:50.041Z,21.92
2022-08-19T22:30:39.157Z,21.13
2022-08-19T22:33:32.668Z,15.98
2022-08-19T22:36:20.790Z,18.73
2022-08-19T22:39:10.161Z,22.60
2022-08-19T22:41:57.603Z,20.25
2022-08-19T22:44:44.592Z,16.90
2022-08-19T22:47:34.216Z,17.75
2022-08-19T22:50:27.221Z,15.10
2022-08-19T22:53:13.461Z,14.85
2022-08-19T22:56:00.825Z,15.43
2022-08-19T22:58:50.802Z,16.20
2022-08-19T23:01:39.796Z,14.23
2022-08-19T23:04:30.507Z,13.55
2022-08-19T23:07:19.764Z,13.23
2022-08-19T23:10:12.282Z,15.60
2022-08-19T23:13:01.535Z,12.68
2022-08-19T23:15:49.735Z,13.82
2022-08-19T23:18:37.343Z,13.18
2022-08-19T23:21:27.009Z,13.57
2022-08-19T23:24:15.960Z,17.10
2022-08-19T23:27:17.071Z,13.18
2022-08-19T23:30:22.686Z,15.20
2022-08-19T23:33:16.161Z,14.68
2022-08-19T23:38:50.868Z,18.48
2022-08-19T23:41:39.667Z,14.63
2022-08-19T23:44:26.788Z,17.48
2022-08-19T23:47:13.797Z,13.65
2022-08-19T23:50:05.883Z,14.40
2022-08-19T23:52:57.599Z,16.02
2022-08-19T23:55:47.524Z,19.20
2022-08-19T23:58:37.386Z,15.38
